sensor_id;sensor_type;location;lat;lon;timestamp;P1;durP1;ratioP1;P2;durP2;ratioP2
58260;SDS011;44058;52.898;6.502;2023-06-05T00:00:13;4.75;;;4.22;;
58260;SDS011;44058;52.898;6.502;2023-06-05T00:02:39;4.60;;;3.90;;
58260;SDS011;44058;52.898;6.502;2023-06-05T00:05:06;6.57;;;4.57;;
58260;SDS011;44058;52.898;6.502;2023-06-05T00:07:34;6.80;;;4.63;;
58260;SDS011;44058;52.898;6.502;2023-06-05T00:10:03;6.47;;;4.13;;
58260;SDS011;44058;52.898;6.502;2023-06-05T00:12:29;4.95;;;4.35;;
58260;SDS011;44058;52.898;6.502;2023-06-05T00:14:55;5.05;;;4.00;;
58260;SDS011;44058;52.898;6.502;2023-06-05T00:17:21;4.85;;;4.15;;
58260;SDS011;44058;52.898;6.502;2023-06-05T00:19:47;5.32;;;4.00;;
58260;SDS011;44058;52.898;6.502;2023-06-05T00:22:13;5.68;;;3.97;;
58260;SDS011;44058;52.898;6.502;2023-06-05T00:24:39;5.10;;;3.70;;
58260;SDS011;44058;52.898;6.502;2023-06-05T00:27:06;4.03;;;3.60;;
58260;SDS011;44058;52.898;6.502;2023-06-05T00:29:32;3.97;;;3.55;;
58260;SDS011;44058;52.898;6.502;2023-06-05T00:31:58;4.80;;;3.83;;
58260;SDS011;44058;52.898;6.502;2023-06-05T00:34:24;5.20;;;3.92;;
58260;SDS011;44058;52.898;6.502;2023-06-05T00:36:50;5.20;;;4.18;;
58260;SDS011;44058;52.898;6.502;2023-06-05T00:39:17;5.30;;;4.80;;
58260;SDS011;44058;52.898;6.502;2023-06-05T00:41:46;5.07;;;4.30;;
58260;SDS011;44058;52.898;6.502;2023-06-05T00:44:12;4.72;;;4.22;;
58260;SDS011;44058;52.898;6.502;2023-06-05T00:46:38;6.03;;;4.78;;
58260;SDS011;44058;52.898;6.502;2023-06-05T00:49:05;4.78;;;4.10;;
58260;SDS011;44058;52.898;6.502;2023-06-05T00:51:31;5.57;;;4.35;;
58260;SDS011;44058;52.898;6.502;2023-06-05T00:53:57;5.47;;;4.10;;
58260;SDS011;44058;52.898;6.502;2023-06-05T00:56:24;6.93;;;4.28;;
58260;SDS011;44058;52.898;6.502;2023-06-05T00:58:50;6.80;;;4.35;;
58260;SDS011;44058;52.898;6.502;2023-06-05T01:03:46;5.10;;;4.15;;
58260;SDS011;44058;52.898;6.502;2023-06-05T01:06:12;5.57;;;3.95;;
58260;SDS011;44058;52.898;6.502;2023-06-05T01:08:41;4.20;;;3.75;;
58260;SDS011;44058;52.898;6.502;2023-06-05T01:11:13;4.15;;;3.60;;
58260;SDS011;44058;52.898;6.502;2023-06-05T01:13:44;6.25;;;4.40;;
58260;SDS011;44058;52.898;6.502;2023-06-05T01:16:12;4.68;;;3.70;;
58260;SDS011;44058;52.898;6.502;2023-06-05T01:18:40;5.00;;;3.70;;
58260;SDS011;44058;52.898;6.502;2023-06-05T01:21:12;4.05;;;3.33;;
58260;SDS011;44058;52.898;6.502;2023-06-05T01:23:39;4.53;;;4.00;;
58260;SDS011;44058;52.898;6.502;2023-06-05T01:26:09;5.35;;;4.32;;
58260;SDS011;44058;52.898;6.502;2023-06-05T01:28:38;7.57;;;5.15;;
58260;SDS011;44058;52.898;6.502;2023-06-05T01:31:14;5.80;;;4.88;;
58260;SDS011;44058;52.898;6.502;2023-06-05T01:33:46;6.97;;;4.72;;
58260;SDS011;44058;52.898;6.502;2023-06-05T01:36:15;6.38;;;4.90;;
58260;SDS011;44058;52.898;6.502;2023-06-05T01:38:42;4.85;;;4.30;;
58260;SDS011;44058;52.898;6.502;2023-06-05T01:41:10;6.43;;;4.20;;
58260;SDS011;44058;52.898;6.502;2023-06-05T01:43:36;5.20;;;4.10;;
58260;SDS011;44058;52.898;6.502;2023-06-05T01:46:03;5.05;;;3.42;;
58260;SDS011;44058;52.898;6.502;2023-06-05T01:50:58;4.07;;;3.67;;
58260;SDS011;44058;52.898;6.502;2023-06-05T01:53:25;5.10;;;4.47;;
58260;SDS011;44058;52.898;6.502;2023-06-05T01:55:52;4.32;;;3.33;;
58260;SDS011;44058;52.898;6.502;2023-06-05T01:58:22;5.10;;;4.22;;
58260;SDS011;44058;52.898;6.502;2023-06-05T02:00:48;4.05;;;3.65;;
58260;SDS011;44058;52.898;6.502;2023-06-05T02:03:15;4.20;;;3.80;;
58260;SDS011;44058;52.898;6.502;2023-06-05T02:05:41;5.43;;;4.22;;
58260;SDS011;44058;52.898;6.502;2023-06-05T02:08:07;6.30;;;4.97;;
58260;SDS011;44058;52.898;6.502;2023-06-05T02:10:35;5.43;;;4.75;;
58260;SDS011;44058;52.898;6.502;2023-06-05T02:13:11;7.13;;;5.28;;
58260;SDS011;44058;52.898;6.502;2023-06-05T02:15:37;6.32;;;5.25;;
58260;SDS011;44058;52.898;6.502;2023-06-05T02:18:03;8.02;;;5.28;;
58260;SDS011;44058;52.898;6.502;2023-06-05T02:20:30;6.18;;;4.63;;
58260;SDS011;44058;52.898;6.502;2023-06-05T02:22:57;5.10;;;4.22;;
58260;SDS011;44058;52.898;6.502;2023-06-05T02:25:24;5.47;;;4.78;;
58260;SDS011;44058;52.898;6.502;2023-06-05T02:27:53;5.93;;;4.13;;
58260;SDS011;44058;52.898;6.502;2023-06-05T02:30:20;5.28;;;4.40;;
58260;SDS011;44058;52.898;6.502;2023-06-05T02:32:47;5.10;;;4.40;;
58260;SDS011;44058;52.898;6.502;2023-06-05T02:35:13;5.20;;;4.70;;
58260;SDS011;44058;52.898;6.502;2023-06-05T02:37:40;6.10;;;4.80;;
58260;SDS011;44058;52.898;6.502;2023-06-05T02:40:12;5.10;;;3.90;;
58260;SDS011;44058;52.898;6.502;2023-06-05T02:42:38;5.82;;;3.88;;
58260;SDS011;44058;52.898;6.502;2023-06-05T02:45:05;4.43;;;3.80;;
58260;SDS011;44058;52.898;6.502;2023-06-05T02:47:32;7.55;;;4.20;;
58260;SDS011;44058;52.898;6.502;2023-06-05T02:49:59;4.78;;;3.58;;
58260;SDS011;44058;52.898;6.502;2023-06-05T02:52:25;4.47;;;3.80;;
58260;SDS011;44058;52.898;6.502;2023-06-05T02:54:53;6.38;;;4.43;;
58260;SDS011;44058;52.898;6.502;2023-06-05T02:57:20;6.22;;;4.95;;
58260;SDS011;44058;52.898;6.502;2023-06-05T02:59:46;7.25;;;5.15;;
58260;SDS011;44058;52.898;6.502;2023-06-05T03:02:12;7.10;;;4.65;;
58260;SDS011;44058;52.898;6.502;2023-06-05T03:04:39;6.78;;;4.60;;
58260;SDS011;44058;52.898;6.502;2023-06-05T03:07:05;9.13;;;3.83;;
58260;SDS011;44058;52.898;6.502;2023-06-05T03:09:33;4.22;;;3.60;;
58260;SDS011;44058;52.898;6.502;2023-06-05T03:11:59;5.88;;;3.90;;
58260;SDS011;44058;52.898;6.502;2023-06-05T03:14:25;4.78;;;4.10;;
58260;SDS011;44058;52.898;6.502;2023-06-05T03:16:56;4.30;;;3.58;;
58260;SDS011;44058;52.898;6.502;2023-06-05T03:19:24;5.13;;;3.85;;
58260;SDS011;44058;52.898;6.502;2023-06-05T03:21:50;5.68;;;3.92;;
58260;SDS011;44058;52.898;6.502;2023-06-05T03:24:18;5.63;;;4.07;;
58260;SDS011;44058;52.898;6.502;2023-06-05T03:26:45;5.28;;;3.90;;
58260;SDS011;44058;52.898;6.502;2023-06-05T03:29:11;8.48;;;5.30;;
58260;SDS011;44058;52.898;6.502;2023-06-05T03:31:37;6.03;;;4.63;;
58260;SDS011;44058;52.898;6.502;2023-06-05T03:34:03;6.07;;;4.80;;
58260;SDS011;44058;52.898;6.502;2023-06-05T03:36:31;8.10;;;5.00;;
58260;SDS011;44058;52.898;6.502;2023-06-05T03:38:59;7.80;;;5.38;;
58260;SDS011;44058;52.898;6.502;2023-06-05T03:41:26;7.10;;;5.75;;
58260;SDS011;44058;52.898;6.502;2023-06-05T03:43:52;8.07;;;5.70;;
58260;SDS011;44058;52.898;6.502;2023-06-05T03:46:18;6.88;;;5.38;;
58260;SDS011;44058;52.898;6.502;2023-06-05T03:48:45;5.55;;;4.65;;
58260;SDS011;44058;52.898;6.502;2023-06-05T03:51:11;5.75;;;4.65;;
58260;SDS011;44058;52.898;6.502;2023-06-05T03:53:38;5.68;;;5.03;;
58260;SDS011;44058;52.898;6.502;2023-06-05T03:56:07;8.32;;;4.80;;
58260;SDS011;44058;52.898;6.502;2023-06-05T04:01:00;7.88;;;5.25;;
58260;SDS011;44058;52.898;6.502;2023-06-05T04:03:26;6.47;;;5.45;;
58260;SDS011;44058;52.898;6.502;2023-06-05T04:05:54;7.17;;;5.97;;
58260;SDS011;44058;52.898;6.502;2023-06-05T04:08:20;8.80;;;6.03;;
58260;SDS011;44058;52.898;6.502;2023-06-05T04:10:46;8.57;;;6.03;;
58260;SDS011;44058;52.898;6.502;2023-06-05T04:13:12;8.48;;;5.97;;
58260;SDS011;44058;52.898;6.502;2023-06-05T04:15:39;7.05;;;5.80;;
58260;SDS011;44058;52.898;6.502;2023-06-05T04:18:05;7.65;;;6.18;;
58260;SDS011;44058;52.898;6.502;2023-06-05T04:20:31;6.55;;;5.63;;
58260;SDS011;44058;52.898;6.502;2023-06-05T04:22:57;8.50;;;5.80;;
58260;SDS011;44058;52.898;6.502;2023-06-05T04:25:23;7.30;;;5.47;;
58260;SDS011;44058;52.898;6.502;2023-06-05T04:27:54;6.38;;;5.45;;
58260;SDS011;44058;52.898;6.502;2023-06-05T04:30:20;6.82;;;5.28;;
58260;SDS011;44058;52.898;6.502;2023-06-05T04:32:46;9.48;;;5.90;;
58260;SDS011;44058;52.898;6.502;2023-06-05T04:35:19;6.88;;;5.47;;
58260;SDS011;44058;52.898;6.502;2023-06-05T04:37:46;8.13;;;5.60;;
58260;SDS011;44058;52.898;6.502;2023-06-05T04:40:12;9.00;;;5.97;;
58260;SDS011;44058;52.898;6.502;2023-06-05T04:42:38;7.93;;;5.93;;
58260;SDS011;44058;52.898;6.502;2023-06-05T04:45:05;7.40;;;5.50;;
58260;SDS011;44058;52.898;6.502;2023-06-05T04:47:33;7.60;;;5.97;;
58260;SDS011;44058;52.898;6.502;2023-06-05T04:49:59;8.77;;;5.68;;
58260;SDS011;44058;52.898;6.502;2023-06-05T04:52:26;7.65;;;5.57;;
58260;SDS011;44058;52.898;6.502;2023-06-05T04:54:54;5.47;;;4.53;;
58260;SDS011;44058;52.898;6.502;2023-06-05T04:57:20;5.97;;;5.10;;
58260;SDS011;44058;52.898;6.502;2023-06-05T04:59:46;8.18;;;5.35;;
58260;SDS011;44058;52.898;6.502;2023-06-05T05:02:12;8.00;;;5.18;;
58260;SDS011;44058;52.898;6.502;2023-06-05T05:04:38;6.30;;;5.30;;
58260;SDS011;44058;52.898;6.502;2023-06-05T05:07:05;7.85;;;4.88;;
58260;SDS011;44058;52.898;6.502;2023-06-05T05:09:31;8.98;;;5.28;;
58260;SDS011;44058;52.898;6.502;2023-06-05T05:11:58;6.82;;;5.13;;
58260;SDS011;44058;52.898;6.502;2023-06-05T05:14:24;7.35;;;5.05;;
58260;SDS011;44058;52.898;6.502;2023-06-05T05:16:52;7.78;;;5.28;;
58260;SDS011;44058;52.898;6.502;2023-06-05T05:19:18;8.18;;;5.55;;
58260;SDS011;44058;52.898;6.502;2023-06-05T05:21:45;8.13;;;5.07;;
58260;SDS011;44058;52.898;6.502;2023-06-05T05:24:12;7.40;;;4.93;;
58260;SDS011;44058;52.898;6.502;2023-06-05T05:26:38;6.20;;;4.88;;
58260;SDS011;44058;52.898;6.502;2023-06-05T05:29:07;6.78;;;4.80;;
58260;SDS011;44058;52.898;6.502;2023-06-05T05:31:34;5.68;;;5.10;;
58260;SDS011;44058;52.898;6.502;2023-06-05T05:34:00;6.68;;;4.95;;
58260;SDS011;44058;52.898;6.502;2023-06-05T05:36:27;7.10;;;5.40;;
58260;SDS011;44058;52.898;6.502;2023-06-05T05:38:53;6.60;;;5.00;;
58260;SDS011;44058;52.898;6.502;2023-06-05T05:41:20;6.18;;;5.20;;
58260;SDS011;44058;52.898;6.502;2023-06-05T05:43:49;6.38;;;4.32;;
58260;SDS011;44058;52.898;6.502;2023-06-05T05:46:15;6.70;;;4.75;;
58260;SDS011;44058;52.898;6.502;2023-06-05T05:48:42;5.43;;;4.82;;
58260;SDS011;44058;52.898;6.502;2023-06-05T05:51:08;8.07;;;5.75;;
58260;SDS011;44058;52.898;6.502;2023-06-05T05:53:34;5.38;;;4.60;;
58260;SDS011;44058;52.898;6.502;2023-06-05T05:56:01;7.05;;;4.80;;
58260;SDS011;44058;52.898;6.502;2023-06-05T05:58:29;7.45;;;4.88;;
58260;SDS011;44058;52.898;6.502;2023-06-05T06:00:55;6.53;;;4.60;;
58260;SDS011;44058;52.898;6.502;2023-06-05T06:03:21;7.82;;;5.20;;
58260;SDS011;44058;52.898;6.502;2023-06-05T06:05:48;5.90;;;4.45;;
58260;SDS011;44058;52.898;6.502;2023-06-05T06:08:15;4.82;;;4.28;;
58260;SDS011;44058;52.898;6.502;2023-06-05T06:10:42;6.82;;;4.45;;
58260;SDS011;44058;52.898;6.502;2023-06-05T06:13:08;5.60;;;4.30;;
58260;SDS011;44058;52.898;6.502;2023-06-05T06:15:35;6.43;;;4.43;;
58260;SDS011;44058;52.898;6.502;2023-06-05T06:18:04;6.10;;;4.45;;
58260;SDS011;44058;52.898;6.502;2023-06-05T06:20:30;5.60;;;4.07;;
58260;SDS011;44058;52.898;6.502;2023-06-05T06:22:57;7.00;;;3.80;;
58260;SDS011;44058;52.898;6.502;2023-06-05T06:25:24;4.90;;;3.70;;
58260;SDS011;44058;52.898;6.502;2023-06-05T06:27:54;5.00;;;3.53;;
58260;SDS011;44058;52.898;6.502;2023-06-05T06:30:20;4.07;;;3.38;;
58260;SDS011;44058;52.898;6.502;2023-06-05T06:32:47;5.20;;;3.22;;
58260;SDS011;44058;52.898;6.502;2023-06-05T06:35:13;4.55;;;3.58;;
58260;SDS011;44058;52.898;6.502;2023-06-05T06:37:42;4.70;;;3.70;;
58260;SDS011;44058;52.898;6.502;2023-06-05T06:40:09;4.45;;;3.60;;
58260;SDS011;44058;52.898;6.502;2023-06-05T06:42:36;5.07;;;3.47;;
58260;SDS011;44058;52.898;6.502;2023-06-05T06:45:02;4.88;;;3.72;;
58260;SDS011;44058;52.898;6.502;2023-06-05T06:47:29;4.13;;;3.00;;
58260;SDS011;44058;52.898;6.502;2023-06-05T06:49:55;5.35;;;3.72;;
58260;SDS011;44058;52.898;6.502;2023-06-05T06:52:24;4.07;;;3.33;;
58260;SDS011;44058;52.898;6.502;2023-06-05T06:54:50;4.90;;;3.75;;
58260;SDS011;44058;52.898;6.502;2023-06-05T06:57:16;4.57;;;3.70;;
58260;SDS011;44058;52.898;6.502;2023-06-05T06:59:42;3.95;;;3.20;;
58260;SDS011;44058;52.898;6.502;2023-06-05T07:04:39;3.00;;;2.70;;
58260;SDS011;44058;52.898;6.502;2023-06-05T07:07:09;4.30;;;3.40;;
58260;SDS011;44058;52.898;6.502;2023-06-05T07:09:37;3.50;;;3.20;;
58260;SDS011;44058;52.898;6.502;2023-06-05T07:12:03;3.53;;;2.70;;
58260;SDS011;44058;52.898;6.502;2023-06-05T07:14:31;4.38;;;3.53;;
58260;SDS011;44058;52.898;6.502;2023-06-05T07:16:58;5.05;;;3.35;;
58260;SDS011;44058;52.898;6.502;2023-06-05T07:19:28;5.85;;;3.90;;
58260;SDS011;44058;52.898;6.502;2023-06-05T07:21:55;5.18;;;3.33;;
58260;SDS011;44058;52.898;6.502;2023-06-05T07:24:22;4.68;;;3.72;;
58260;SDS011;44058;52.898;6.502;2023-06-05T07:26:50;4.93;;;3.70;;
58260;SDS011;44058;52.898;6.502;2023-06-05T07:29:17;3.88;;;3.38;;
58260;SDS011;44058;52.898;6.502;2023-06-05T07:31:44;5.70;;;3.83;;
58260;SDS011;44058;52.898;6.502;2023-06-05T07:34:10;5.15;;;3.40;;
58260;SDS011;44058;52.898;6.502;2023-06-05T07:36:38;5.85;;;3.47;;
58260;SDS011;44058;52.898;6.502;2023-06-05T07:39:04;3.70;;;3.40;;
58260;SDS011;44058;52.898;6.502;2023-06-05T07:41:30;6.25;;;3.10;;
58260;SDS011;44058;52.898;6.502;2023-06-05T07:43:56;4.95;;;3.50;;
58260;SDS011;44058;52.898;6.502;2023-06-05T07:46:22;3.78;;;3.42;;
58260;SDS011;44058;52.898;6.502;2023-06-05T07:48:49;3.85;;;3.33;;
58260;SDS011;44058;52.898;6.502;2023-06-05T07:51:15;4.22;;;3.10;;
58260;SDS011;44058;52.898;6.502;2023-06-05T07:53:43;4.68;;;3.00;;
58260;SDS011;44058;52.898;6.502;2023-06-05T07:56:12;3.72;;;3.08;;
58260;SDS011;44058;52.898;6.502;2023-06-05T07:58:38;3.33;;;3.03;;
58260;SDS011;44058;52.898;6.502;2023-06-05T08:01:06;3.53;;;3.03;;
58260;SDS011;44058;52.898;6.502;2023-06-05T08:03:33;3.55;;;2.63;;
58260;SDS011;44058;52.898;6.502;2023-06-05T08:05:59;3.58;;;3.03;;
58260;SDS011;44058;52.898;6.502;2023-06-05T08:08:26;3.67;;;2.63;;
58260;SDS011;44058;52.898;6.502;2023-06-05T08:10:53;4.93;;;3.22;;
58260;SDS011;44058;52.898;6.502;2023-06-05T08:13:20;3.90;;;3.20;;
58260;SDS011;44058;52.898;6.502;2023-06-05T08:15:46;5.65;;;3.47;;
58260;SDS011;44058;52.898;6.502;2023-06-05T08:18:12;3.47;;;3.15;;
58260;SDS011;44058;52.898;6.502;2023-06-05T08:20:38;5.00;;;3.22;;
58260;SDS011;44058;52.898;6.502;2023-06-05T08:23:05;2.97;;;2.53;;
58260;SDS011;44058;52.898;6.502;2023-06-05T08:25:31;4.22;;;2.97;;
58260;SDS011;44058;52.898;6.502;2023-06-05T08:27:57;3.45;;;2.75;;
58260;SDS011;44058;52.898;6.502;2023-06-05T08:30:23;3.85;;;3.03;;
58260;SDS011;44058;52.898;6.502;2023-06-05T08:32:49;4.30;;;3.65;;
58260;SDS011;44058;52.898;6.502;2023-06-05T08:35:15;3.78;;;2.83;;
58260;SDS011;44058;52.898;6.502;2023-06-05T08:37:41;4.53;;;2.92;;
58260;SDS011;44058;52.898;6.502;2023-06-05T08:40:07;4.50;;;3.45;;
58260;SDS011;44058;52.898;6.502;2023-06-05T08:42:39;3.00;;;2.70;;
58260;SDS011;44058;52.898;6.502;2023-06-05T08:45:08;5.53;;;2.92;;
58260;SDS011;44058;52.898;6.502;2023-06-05T08:47:37;3.75;;;2.90;;
58260;SDS011;44058;52.898;6.502;2023-06-05T08:50:05;3.78;;;2.90;;
58260;SDS011;44058;52.898;6.502;2023-06-05T08:52:38;3.47;;;3.00;;
58260;SDS011;44058;52.898;6.502;2023-06-05T08:55:04;3.28;;;2.97;;
58260;SDS011;44058;52.898;6.502;2023-06-05T08:57:31;3.83;;;2.28;;
58260;SDS011;44058;52.898;6.502;2023-06-05T08:59:58;4.68;;;2.63;;
58260;SDS011;44058;52.898;6.502;2023-06-05T09:02:25;5.25;;;2.85;;
58260;SDS011;44058;52.898;6.502;2023-06-05T09:04:51;4.75;;;2.80;;
58260;SDS011;44058;52.898;6.502;2023-06-05T09:07:17;3.85;;;2.95;;
58260;SDS011;44058;52.898;6.502;2023-06-05T09:09:44;6.93;;;2.75;;
58260;SDS011;44058;52.898;6.502;2023-06-05T09:12:11;3.58;;;2.63;;
58260;SDS011;44058;52.898;6.502;2023-06-05T09:14:38;3.60;;;2.80;;
58260;SDS011;44058;52.898;6.502;2023-06-05T09:17:04;4.68;;;3.55;;
58260;SDS011;44058;52.898;6.502;2023-06-05T09:19:40;3.90;;;2.80;;
58260;SDS011;44058;52.898;6.502;2023-06-05T09:22:13;3.28;;;2.97;;
58260;SDS011;44058;52.898;6.502;2023-06-05T09:24:41;4.10;;;3.30;;
58260;SDS011;44058;52.898;6.502;2023-06-05T09:27:08;2.67;;;2.47;;
58260;SDS011;44058;52.898;6.502;2023-06-05T09:29:36;5.43;;;3.17;;
58260;SDS011;44058;52.898;6.502;2023-06-05T09:32:21;4.70;;;2.80;;
58260;SDS011;44058;52.898;6.502;2023-06-05T09:34:55;2.90;;;2.42;;
58260;SDS011;44058;52.898;6.502;2023-06-05T09:37:34;5.28;;;2.72;;
58260;SDS011;44058;52.898;6.502;2023-06-05T09:40:01;5.13;;;2.70;;
58260;SDS011;44058;52.898;6.502;2023-06-05T09:42:33;5.93;;;2.97;;
58260;SDS011;44058;52.898;6.502;2023-06-05T09:45:00;3.20;;;2.75;;
58260;SDS011;44058;52.898;6.502;2023-06-05T09:47:27;2.92;;;2.63;;
58260;SDS011;44058;52.898;6.502;2023-06-05T09:49:53;4.13;;;3.00;;
58260;SDS011;44058;52.898;6.502;2023-06-05T09:52:20;7.75;;;2.85;;
58260;SDS011;44058;52.898;6.502;2023-06-05T09:54:46;3.40;;;2.70;;
58260;SDS011;44058;52.898;6.502;2023-06-05T09:57:13;3.38;;;3.00;;
58260;SDS011;44058;52.898;6.502;2023-06-05T09:59:52;4.20;;;2.78;;
58260;SDS011;44058;52.898;6.502;2023-06-05T10:02:19;5.00;;;3.00;;
58260;SDS011;44058;52.898;6.502;2023-06-05T10:04:46;6.82;;;3.35;;
58260;SDS011;44058;52.898;6.502;2023-06-05T10:07:13;4.30;;;3.30;;
58260;SDS011;44058;52.898;6.502;2023-06-05T10:09:40;3.13;;;2.83;;
58260;SDS011;44058;52.898;6.502;2023-06-05T10:12:07;4.30;;;3.30;;
58260;SDS011;44058;52.898;6.502;2023-06-05T10:14:34;6.40;;;3.28;;
58260;SDS011;44058;52.898;6.502;2023-06-05T10:17:01;4.00;;;3.60;;
58260;SDS011;44058;52.898;6.502;2023-06-05T10:19:27;6.07;;;3.20;;
58260;SDS011;44058;52.898;6.502;2023-06-05T10:21:54;6.00;;;3.80;;
58260;SDS011;44058;52.898;6.502;2023-06-05T10:24:21;4.47;;;3.17;;
58260;SDS011;44058;52.898;6.502;2023-06-05T10:26:53;6.55;;;3.50;;
58260;SDS011;44058;52.898;6.502;2023-06-05T10:32:14;5.00;;;3.67;;
58260;SDS011;44058;52.898;6.502;2023-06-05T10:34:49;3.88;;;3.20;;
58260;SDS011;44058;52.898;6.502;2023-06-05T10:39:51;3.60;;;3.22;;
58260;SDS011;44058;52.898;6.502;2023-06-05T10:42:26;4.40;;;3.40;;
58260;SDS011;44058;52.898;6.502;2023-06-05T10:44:53;4.45;;;3.45;;
58260;SDS011;44058;52.898;6.502;2023-06-05T10:52:53;3.40;;;3.08;;
58260;SDS011;44058;52.898;6.502;2023-06-05T10:55:20;4.72;;;3.70;;
58260;SDS011;44058;52.898;6.502;2023-06-05T11:00:21;3.92;;;3.53;;
58260;SDS011;44058;52.898;6.502;2023-06-05T11:02:48;4.47;;;3.63;;
58260;SDS011;44058;52.898;6.502;2023-06-05T11:05:14;4.28;;;3.03;;
58260;SDS011;44058;52.898;6.502;2023-06-05T11:07:41;5.03;;;3.17;;
58260;SDS011;44058;52.898;6.502;2023-06-05T11:10:11;5.78;;;3.55;;
58260;SDS011;44058;52.898;6.502;2023-06-05T11:15:53;7.07;;;3.65;;
58260;SDS011;44058;52.898;6.502;2023-06-05T11:17:54;5.93;;;3.63;;
58260;SDS011;44058;52.898;6.502;2023-06-05T11:27:50;5.07;;;3.80;;
58260;SDS011;44058;52.898;6.502;2023-06-05T11:30:20;7.35;;;4.35;;
58260;SDS011;44058;52.898;6.502;2023-06-05T11:32:46;4.25;;;3.78;;
58260;SDS011;44058;52.898;6.502;2023-06-05T11:35:13;6.28;;;4.30;;
58260;SDS011;44058;52.898;6.502;2023-06-05T11:37:39;6.70;;;3.83;;
58260;SDS011;44058;52.898;6.502;2023-06-05T11:40:06;5.55;;;3.83;;
58260;SDS011;44058;52.898;6.502;2023-06-05T11:42:36;5.88;;;3.85;;
58260;SDS011;44058;52.898;6.502;2023-06-05T11:45:13;5.07;;;3.58;;
58260;SDS011;44058;52.898;6.502;2023-06-05T11:47:39;4.63;;;4.03;;
58260;SDS011;44058;52.898;6.502;2023-06-05T11:52:35;6.13;;;3.72;;
58260;SDS011;44058;52.898;6.502;2023-06-05T11:55:14;6.70;;;3.53;;
58260;SDS011;44058;52.898;6.502;2023-06-05T11:57:42;3.97;;;3.50;;
58260;SDS011;44058;52.898;6.502;2023-06-05T12:00:09;5.95;;;3.40;;
58260;SDS011;44058;52.898;6.502;2023-06-05T12:02:36;4.57;;;3.70;;
58260;SDS011;44058;52.898;6.502;2023-06-05T12:05:04;5.53;;;3.70;;
58260;SDS011;44058;52.898;6.502;2023-06-05T12:07:31;4.35;;;3.40;;
58260;SDS011;44058;52.898;6.502;2023-06-05T12:10:01;4.88;;;3.80;;
58260;SDS011;44058;52.898;6.502;2023-06-05T12:12:29;5.68;;;3.75;;
58260;SDS011;44058;52.898;6.502;2023-06-05T12:14:55;4.28;;;3.88;;
58260;SDS011;44058;52.898;6.502;2023-06-05T12:17:22;4.35;;;3.58;;
58260;SDS011;44058;52.898;6.502;2023-06-05T12:19:54;5.63;;;3.65;;
58260;SDS011;44058;52.898;6.502;2023-06-05T12:22:22;5.10;;;3.40;;
58260;SDS011;44058;52.898;6.502;2023-06-05T12:24:48;5.07;;;3.75;;
58260;SDS011;44058;52.898;6.502;2023-06-05T12:27:14;4.53;;;3.42;;
58260;SDS011;44058;52.898;6.502;2023-06-05T12:29:52;7.07;;;3.97;;
58260;SDS011;44058;52.898;6.502;2023-06-05T12:32:20;4.40;;;3.65;;
58260;SDS011;44058;52.898;6.502;2023-06-05T12:34:47;6.60;;;4.82;;
58260;SDS011;44058;52.898;6.502;2023-06-05T12:39:57;3.40;;;3.10;;
58260;SDS011;44058;52.898;6.502;2023-06-05T12:42:27;5.43;;;3.70;;
58260;SDS011;44058;52.898;6.502;2023-06-05T12:44:54;4.70;;;3.45;;
58260;SDS011;44058;52.898;6.502;2023-06-05T12:47:20;4.28;;;3.00;;
58260;SDS011;44058;52.898;6.502;2023-06-05T12:49:47;4.47;;;3.10;;
58260;SDS011;44058;52.898;6.502;2023-06-05T12:52:13;3.40;;;3.10;;
58260;SDS011;44058;52.898;6.502;2023-06-05T12:54:39;4.97;;;3.45;;
58260;SDS011;44058;52.898;6.502;2023-06-05T12:57:06;5.32;;;3.00;;
58260;SDS011;44058;52.898;6.502;2023-06-05T12:59:32;4.28;;;3.88;;
58260;SDS011;44058;52.898;6.502;2023-06-05T13:01:59;5.25;;;3.13;;
58260;SDS011;44058;52.898;6.502;2023-06-05T13:04:25;4.82;;;2.97;;
58260;SDS011;44058;52.898;6.502;2023-06-05T13:06:51;5.57;;;3.33;;
58260;SDS011;44058;52.898;6.502;2023-06-05T13:09:20;4.47;;;3.65;;
58260;SDS011;44058;52.898;6.502;2023-06-05T13:11:46;2.92;;;2.40;;
58260;SDS011;44058;52.898;6.502;2023-06-05T13:14:12;4.70;;;2.80;;
58260;SDS011;44058;52.898;6.502;2023-06-05T13:16:38;4.88;;;3.05;;
58260;SDS011;44058;52.898;6.502;2023-06-05T13:19:05;4.95;;;3.30;;
58260;SDS011;44058;52.898;6.502;2023-06-05T13:21:31;3.10;;;2.63;;
58260;SDS011;44058;52.898;6.502;2023-06-05T13:23:57;4.47;;;2.90;;
58260;SDS011;44058;52.898;6.502;2023-06-05T13:26:23;4.65;;;2.50;;
58260;SDS011;44058;52.898;6.502;2023-06-05T13:28:50;4.03;;;2.72;;
58260;SDS011;44058;52.898;6.502;2023-06-05T13:31:16;8.25;;;2.97;;
58260;SDS011;44058;52.898;6.502;2023-06-05T13:33:42;4.10;;;2.85;;
58260;SDS011;44058;52.898;6.502;2023-06-05T13:36:08;3.58;;;2.88;;
58260;SDS011;44058;52.898;6.502;2023-06-05T13:38:34;3.80;;;2.95;;
58260;SDS011;44058;52.898;6.502;2023-06-05T13:41:04;3.05;;;2.70;;
58260;SDS011;44058;52.898;6.502;2023-06-05T13:43:30;4.40;;;2.78;;
58260;SDS011;44058;52.898;6.502;2023-06-05T13:45:57;3.90;;;3.00;;
58260;SDS011;44058;52.898;6.502;2023-06-05T13:48:23;3.75;;;3.00;;
58260;SDS011;44058;52.898;6.502;2023-06-05T13:50:49;5.82;;;2.83;;
58260;SDS011;44058;52.898;6.502;2023-06-05T13:53:15;3.17;;;2.60;;
58260;SDS011;44058;52.898;6.502;2023-06-05T13:55:42;2.72;;;2.40;;
58260;SDS011;44058;52.898;6.502;2023-06-05T13:58:08;5.35;;;2.88;;
58260;SDS011;44058;52.898;6.502;2023-06-05T14:00:34;3.15;;;2.47;;
58260;SDS011;44058;52.898;6.502;2023-06-05T14:03:01;3.05;;;2.63;;
58260;SDS011;44058;52.898;6.502;2023-06-05T14:05:27;6.07;;;3.20;;
58260;SDS011;44058;52.898;6.502;2023-06-05T14:07:54;4.55;;;2.88;;
58260;SDS011;44058;52.898;6.502;2023-06-05T14:10:21;3.88;;;2.75;;
58260;SDS011;44058;52.898;6.502;2023-06-05T14:12:48;4.38;;;2.78;;
58260;SDS011;44058;52.898;6.502;2023-06-05T14:15:14;3.55;;;2.63;;
58260;SDS011;44058;52.898;6.502;2023-06-05T14:17:42;2.95;;;2.47;;
58260;SDS011;44058;52.898;6.502;2023-06-05T14:20:09;4.32;;;2.90;;
58260;SDS011;44058;52.898;6.502;2023-06-05T14:22:36;4.57;;;3.65;;
58260;SDS011;44058;52.898;6.502;2023-06-05T14:25:02;3.88;;;2.90;;
58260;SDS011;44058;52.898;6.502;2023-06-05T14:27:29;2.60;;;2.40;;
58260;SDS011;44058;52.898;6.502;2023-06-05T14:29:55;3.53;;;2.83;;
58260;SDS011;44058;52.898;6.502;2023-06-05T14:32:22;2.72;;;2.30;;
58260;SDS011;44058;52.898;6.502;2023-06-05T14:34:48;4.07;;;2.60;;
58260;SDS011;44058;52.898;6.502;2023-06-05T14:37:14;3.33;;;2.80;;
58260;SDS011;44058;52.898;6.502;2023-06-05T14:39:40;3.63;;;2.53;;
58260;SDS011;44058;52.898;6.502;2023-06-05T14:42:06;3.95;;;3.25;;
58260;SDS011;44058;52.898;6.502;2023-06-05T14:44:32;4.40;;;2.97;;
58260;SDS011;44058;52.898;6.502;2023-06-05T14:46:58;3.30;;;3.00;;
58260;SDS011;44058;52.898;6.502;2023-06-05T14:49:24;6.13;;;2.85;;
58260;SDS011;44058;52.898;6.502;2023-06-05T14:51:51;4.70;;;2.63;;
58260;SDS011;44058;52.898;6.502;2023-06-05T14:54:17;6.85;;;3.05;;
58260;SDS011;44058;52.898;6.502;2023-06-05T14:56:43;4.18;;;3.17;;
58260;SDS011;44058;52.898;6.502;2023-06-05T14:59:09;4.82;;;3.42;;
58260;SDS011;44058;52.898;6.502;2023-06-05T15:01:36;5.68;;;3.38;;
58260;SDS011;44058;52.898;6.502;2023-06-05T15:04:02;2.97;;;2.63;;
58260;SDS011;44058;52.898;6.502;2023-06-05T15:06:28;4.20;;;3.05;;
58260;SDS011;44058;52.898;6.502;2023-06-05T15:08:54;6.00;;;3.67;;
58260;SDS011;44058;52.898;6.502;2023-06-05T15:11:20;4.18;;;3.05;;
58260;SDS011;44058;52.898;6.502;2023-06-05T15:13:46;4.13;;;3.15;;
58260;SDS011;44058;52.898;6.502;2023-06-05T15:16:12;5.32;;;2.92;;
58260;SDS011;44058;52.898;6.502;2023-06-05T15:18:39;5.07;;;3.92;;
58260;SDS011;44058;52.898;6.502;2023-06-05T15:21:05;3.65;;;3.30;;
58260;SDS011;44058;52.898;6.502;2023-06-05T15:23:31;5.32;;;3.67;;
58260;SDS011;44058;52.898;6.502;2023-06-05T15:25:57;4.07;;;3.42;;